createdAt,value
2022-11-26T00:00:30.416Z,69.20
2022-11-26T00:02:57.089Z,69.20
2022-11-26T00:05:24.714Z,69.20
2022-11-26T00:07:55.657Z,69.20
2022-11-26T00:10:29.371Z,69.10
2022-11-26T00:12:57.266Z,69.10
2022-11-26T00:15:26.445Z,69.10
2022-11-26T00:17:53.447Z,69.10
2022-11-26T00:20:23.184Z,69.00
2022-11-26T00:22:55.845Z,69.00
2022-11-26T00:25:25.513Z,69.00
2022-11-26T00:27:54.799Z,69.00
2022-11-26T00:30:25.214Z,69.00
2022-11-26T00:32:55.832Z,69.00
2022-11-26T00:35:23.603Z,69.00
2022-11-26T00:37:56.281Z,69.00
2022-11-26T00:40:28.013Z,69.10
2022-11-26T00:42:58.785Z,69.10
2022-11-26T00:45:29.967Z,69.00
2022-11-26T00:48:01.764Z,69.00
2022-11-26T00:50:32.715Z,69.00
2022-11-26T00:52:59.325Z,69.00
2022-11-26T00:55:33.450Z,69.00
2022-11-26T00:58:00.766Z,69.10
2022-11-26T01:00:30.335Z,69.10
2022-11-26T01:02:57.447Z,69.10
2022-11-26T01:05:26.373Z,69.00
2022-11-26T01:07:53.472Z,69.10
2022-11-26T01:10:28.926Z,69.10
2022-11-26T01:12:55.647Z,69.20
2022-11-26T01:15:24.342Z,69.10
2022-11-26T01:17:52.874Z,69.10
2022-11-26T01:20:28.966Z,69.10
2022-11-26T01:22:57.214Z,69.20
2022-11-26T01:25:25.393Z,69.10
2022-11-26T01:27:52.786Z,69.10
2022-11-26T01:30:22.677Z,69.10
2022-11-26T01:32:50.262Z,69.10
2022-11-26T01:35:18.850Z,69.10
2022-11-26T01:37:46.373Z,69.00
2022-11-26T01:40:22.022Z,69.00
2022-11-26T01:42:51.315Z,69.10
2022-11-26T01:45:21.857Z,69.00
2022-11-26T01:47:49.203Z,69.10
2022-11-26T01:50:28.380Z,69.00
2022-11-26T01:53:02.808Z,69.10
2022-11-26T01:56:05.528Z,69.10
2022-11-26T01:58:42.043Z,69.10
2022-11-26T02:01:09.137Z,69.10
2022-11-26T02:03:43.627Z,69.10
2022-11-26T02:06:16.895Z,69.10
2022-11-26T02:08:43.925Z,69.10
2022-11-26T02:11:23.307Z,69.10
2022-11-26T02:13:54.577Z,69.20
2022-11-26T02:16:44.757Z,69.10
2022-11-26T02:19:30.269Z,69.20
2022-11-26T02:22:12.549Z,69.10
2022-11-26T02:24:50.747Z,69.10
2022-11-26T02:27:27.473Z,69.20
2022-11-26T02:30:06.028Z,69.00
2022-11-26T02:32:48.108Z,69.10
2022-11-26T02:35:34.958Z,69.10
2022-11-26T02:38:06.578Z,69.20
2022-11-26T02:40:33.585Z,69.00
2022-11-26T02:43:00.284Z,69.10
2022-11-26T02:45:42.691Z,69.10
2022-11-26T02:48:14.762Z,69.20
2022-11-26T02:51:10.718Z,69.10
2022-11-26T02:53:38.987Z,69.20
2022-11-26T02:56:11.131Z,69.10
2022-11-26T02:58:38.600Z,69.30
2022-11-26T03:01:11.558Z,69.20
2022-11-26T03:03:46.398Z,69.40
2022-11-26T03:06:14.945Z,69.40
2022-11-26T03:08:43.919Z,69.40
2022-11-26T03:11:10.671Z,69.40
2022-11-26T03:13:37.549Z,69.30
2022-11-26T03:16:04.819Z,69.40
2022-11-26T03:18:31.487Z,69.40
2022-11-26T03:20:58.305Z,69.40
2022-11-26T03:23:24.921Z,69.40
2022-11-26T03:25:51.570Z,69.40
2022-11-26T03:28:18.468Z,69.40
2022-11-26T03:30:45.136Z,69.30
2022-11-26T03:33:11.772Z,69.30
2022-11-26T03:35:38.568Z,69.40
2022-11-26T03:38:05.278Z,69.40
2022-11-26T03:40:31.934Z,69.40
2022-11-26T03:42:58.668Z,69.40
2022-11-26T03:45:25.733Z,69.40
2022-11-26T03:47:52.364Z,69.40
2022-11-26T03:50:19.069Z,69.40
2022-11-26T03:52:45.700Z,69.40
2022-11-26T03:55:12.338Z,69.50
2022-11-26T03:57:39.146Z,69.50
2022-11-26T04:00:08.762Z,69.40
2022-11-26T04:02:36.251Z,69.40
2022-11-26T04:05:02.995Z,69.40
2022-11-26T04:07:29.691Z,69.40
2022-11-26T04:09:56.358Z,69.40
2022-11-26T04:12:23.010Z,69.40
2022-11-26T04:14:49.587Z,69.40
2022-11-26T04:17:16.270Z,69.30
2022-11-26T04:19:42.846Z,69.40
2022-11-26T04:22:09.457Z,69.30
2022-11-26T04:24:36.438Z,69.30
2022-11-26T04:27:03.595Z,69.30
2022-11-26T04:29:30.399Z,69.30
2022-11-26T04:31:57.213Z,69.30
2022-11-26T04:34:24.042Z,69.30
2022-11-26T04:36:50.767Z,69.20
2022-11-26T04:39:17.397Z,69.20
2022-11-26T04:41:44.179Z,69.20
2022-11-26T04:44:11.006Z,69.20
2022-11-26T04:46:37.570Z,69.20
2022-11-26T04:49:04.423Z,69.10
2022-11-26T04:51:31.029Z,69.20
2022-11-26T04:54:00.423Z,69.10
2022-11-26T04:56:29.406Z,69.10
2022-11-26T04:58:56.158Z,69.10
2022-11-26T05:01:23.662Z,69.10
2022-11-26T05:03:51.081Z,69.00
2022-11-26T05:06:17.797Z,69.10
2022-11-26T05:08:44.767Z,69.10
2022-11-26T05:11:11.469Z,69.00
2022-11-26T05:13:38.574Z,69.00
2022-11-26T05:16:05.630Z,69.00
2022-11-26T05:18:32.318Z,69.00
2022-11-26T05:20:58.902Z,69.00
2022-11-26T05:23:25.559Z,68.90
2022-11-26T05:25:52.562Z,69.00
2022-11-26T05:28:19.185Z,68.90
2022-11-26T05:30:45.762Z,68.90
2022-11-26T05:33:12.351Z,68.90
2022-11-26T05:35:39.179Z,68.90
2022-11-26T05:38:06.353Z,68.90
2022-11-26T05:40:33.133Z,68.90
2022-11-26T05:42:59.837Z,68.90
2022-11-26T05:45:26.437Z,68.90
2022-11-26T05:47:53.043Z,68.90
2022-11-26T05:50:19.710Z,69.00
2022-11-26T05:52:46.345Z,68.90
2022-11-26T05:55:12.967Z,68.90
2022-11-26T05:57:39.534Z,68.90
2022-11-26T06:00:06.965Z,69.00
2022-11-26T06:02:33.670Z,68.90
2022-11-26T06:05:00.387Z,68.90
2022-11-26T06:07:27.099Z,69.00
2022-11-26T06:09:53.970Z,68.90
2022-11-26T06:12:20.538Z,68.90
2022-11-26T06:14:47.425Z,68.90
2022-11-26T06:17:14.244Z,68.90
2022-11-26T06:19:40.871Z,68.90
2022-11-26T06:22:08.063Z,68.90
2022-11-26T06:24:34.803Z,68.90
2022-11-26T06:27:01.537Z,68.90
2022-11-26T06:29:28.514Z,68.90
2022-11-26T06:31:55.533Z,68.90
2022-11-26T06:34:22.476Z,68.90
2022-11-26T06:36:49.251Z,68.90
2022-11-26T06:39:15.970Z,68.80
2022-11-26T06:41:42.964Z,68.90
2022-11-26T06:44:09.648Z,68.90
2022-11-26T06:46:37.599Z,68.80
2022-11-26T06:49:05.778Z,68.80
2022-11-26T06:51:33.474Z,68.90
2022-11-26T06:54:00.132Z,68.80
2022-11-26T06:56:26.712Z,68.80
2022-11-26T06:58:55.178Z,68.80
2022-11-26T07:01:26.730Z,68.90
2022-11-26T07:03:54.214Z,68.90
2022-11-26T07:06:32.123Z,68.90
2022-11-26T07:09:04.180Z,69.10
2022-11-26T07:11:30.754Z,68.90
2022-11-26T07:13:57.406Z,68.90
2022-11-26T07:16:24.847Z,68.80
2022-11-26T07:18:57.752Z,68.90
2022-11-26T07:21:28.502Z,68.90
2022-11-26T07:23:55.535Z,69.00
2022-11-26T07:26:23.197Z,68.90
2022-11-26T07:28:50.541Z,69.00
2022-11-26T07:31:19.870Z,69.10
2022-11-26T07:33:47.514Z,69.10
2022-11-26T07:36:28.386Z,69.10
2022-11-26T07:38:59.671Z,69.20
2022-11-26T07:41:27.452Z,69.20
2022-11-26T07:43:54.429Z,69.20
2022-11-26T07:46:23.395Z,69.30
2022-11-26T07:48:50.448Z,69.40
2022-11-26T07:51:23.301Z,69.40
2022-11-26T07:53:50.587Z,69.50
2022-11-26T07:56:17.772Z,69.30
2022-11-26T07:58:44.427Z,69.40
2022-11-26T08:01:14.756Z,69.40
2022-11-26T08:03:43.650Z,69.50
2022-11-26T08:06:13.158Z,69.50
2022-11-26T08:08:40.292Z,69.50
2022-11-26T08:11:18.582Z,69.50
2022-11-26T08:13:46.475Z,69.80
2022-11-26T08:16:13.620Z,69.60
2022-11-26T08:18:40.876Z,69.60
2022-11-26T08:21:07.706Z,69.60
2022-11-26T08:23:34.494Z,69.60
2022-11-26T08:26:31.389Z,69.70
2022-11-26T08:28:56.111Z,69.90
2022-11-26T08:31:24.760Z,69.60
2022-11-26T08:33:51.633Z,69.70
2022-11-26T08:36:18.839Z,69.80
2022-11-26T08:38:45.509Z,69.80
2022-11-26T08:41:13.451Z,69.90
2022-11-26T08:44:05.022Z,69.90
2022-11-26T08:46:27.383Z,69.90
2022-11-26T08:48:58.668Z,69.80
2022-11-26T08:51:26.302Z,69.90
2022-11-26T08:53:53.162Z,69.90
2022-11-26T08:56:20.131Z,69.80
2022-11-26T08:58:48.782Z,69.90
2022-11-26T09:01:18.245Z,69.90
2022-11-26T09:03:48.870Z,70.00
2022-11-26T09:06:15.907Z,70.00
2022-11-26T09:09:01.428Z,69.90
2022-11-26T09:11:28.752Z,69.90
2022-11-26T09:13:57.403Z,69.90
2022-11-26T09:16:24.946Z,70.00
2022-11-26T09:18:52.643Z,70.00
2022-11-26T09:21:20.189Z,70.00
2022-11-26T09:23:46.808Z,70.70
2022-11-26T09:26:13.544Z,70.60
2022-11-26T09:28:40.430Z,70.40
2022-11-26T09:31:07.166Z,70.20
2022-11-26T09:33:33.952Z,70.20
2022-11-26T09:36:06.396Z,70.20
2022-11-26T09:38:33.669Z,70.40
2022-11-26T09:41:19.702Z,70.00
2022-11-26T09:44:12.637Z,70.30
2022-11-26T09:47:11.593Z,70.10
2022-11-26T09:49:44.823Z,70.30
2022-11-26T09:52:15.753Z,70.20
2022-11-26T09:54:43.345Z,70.10
2022-11-26T09:57:28.798Z,70.10
2022-11-26T09:59:56.479Z,70.30
2022-11-26T10:02:25.135Z,69.90
2022-11-26T10:04:52.100Z,69.90
2022-11-26T10:07:40.624Z,70.00
2022-11-26T10:10:37.643Z,70.00
2022-11-26T10:13:41.804Z,69.90
2022-11-26T10:16:18.919Z,70.00
2022-11-26T10:19:09.230Z,70.10
2022-11-26T10:21:58.506Z,70.20
2022-11-26T10:24:36.266Z,70.30
2022-11-26T10:27:14.690Z,70.40
2022-11-26T10:29:43.262Z,70.50
2022-11-26T10:32:15.092Z,70.20
2022-11-26T10:34:56.303Z,70.10
2022-11-26T10:37:25.270Z,70.10
2022-11-26T10:40:01.999Z,69.90
2022-11-26T10:42:41.165Z,70.00
2022-11-26T10:45:25.754Z,70.10
2022-11-26T10:47:52.447Z,70.00
2022-11-26T10:50:47.236Z,69.90
2022-11-26T10:53:26.271Z,70.30
2022-11-26T10:55:56.947Z,70.60
2022-11-26T10:58:31.324Z,70.40
2022-11-26T11:01:05.618Z,70.60
2022-11-26T11:04:08.284Z,70.60
2022-11-26T11:06:41.274Z,70.70
2022-11-26T11:09:37.865Z,70.80
2022-11-26T11:12:08.788Z,70.90
2022-11-26T11:14:41.077Z,71.30
2022-11-26T11:17:27.827Z,71.30
2022-11-26T11:19:55.830Z,71.90
2022-11-26T11:22:22.732Z,71.80
2022-11-26T11:24:49.556Z,72.00
2022-11-26T11:27:39.328Z,72.20
2022-11-26T11:30:06.811Z,72.50
2022-11-26T11:32:39.301Z,72.30
2022-11-26T11:35:32.234Z,72.60
2022-11-26T11:37:59.427Z,72.50
2022-11-26T11:40:29.085Z,72.50
2022-11-26T11:43:00.104Z,72.60
2022-11-26T11:45:46.293Z,72.60
2022-11-26T11:48:30.325Z,72.80
2022-11-26T11:51:20.906Z,72.80
2022-11-26T11:54:19.907Z,72.70
2022-11-26T11:57:07.859Z,72.70
2022-11-26T12:00:12.614Z,72.80
2022-11-26T12:03:16.346Z,72.70
2022-11-26T12:06:24.464Z,72.80
2022-11-26T12:09:25.395Z,72.90
2022-11-26T12:12:04.350Z,72.80
2022-11-26T12:14:50.556Z,72.90
2022-11-26T12:17:39.895Z,72.90
2022-11-26T12:20:31.832Z,72.80
2022-11-26T12:23:23.037Z,72.80
2022-11-26T12:26:35.280Z,72.80
2022-11-26T12:29:14.907Z,72.70
2022-11-26T12:31:58.710Z,73.00
2022-11-26T12:34:30.872Z,72.90
2022-11-26T12:37:20.123Z,73.00
2022-11-26T12:39:54.197Z,73.20
2022-11-26T12:42:36.468Z,73.20
2022-11-26T12:45:17.803Z,73.40
2022-11-26T12:47:51.782Z,73.50
2022-11-26T12:50:57.262Z,73.50
2022-11-26T12:54:00.857Z,73.60
2022-11-26T12:56:33.305Z,73.50
2022-11-26T12:59:10.337Z,73.60
2022-11-26T13:01:37.534Z,73.80
2022-11-26T13:04:35.722Z,73.70
2022-11-26T13:07:08.190Z,73.70
2022-11-26T13:09:42.225Z,73.70
2022-11-26T13:12:33.018Z,73.60
2022-11-26T13:15:26.496Z,73.70
2022-11-26T13:17:53.290Z,73.70
2022-11-26T13:20:48.398Z,73.50
2022-11-26T13:23:39.066Z,73.50
2022-11-26T13:26:21.785Z,73.40
2022-11-26T13:28:48.321Z,73.20
2022-11-26T13:31:20.878Z,72.90
2022-11-26T13:34:28.281Z,72.80
2022-11-26T13:37:10.371Z,72.60
2022-11-26T13:39:50.341Z,72.30
2022-11-26T13:42:25.271Z,72.20
2022-11-26T13:45:19.209Z,72.10
2022-11-26T13:47:59.644Z,71.90
2022-11-26T13:50:29.331Z,71.80
2022-11-26T13:53:12.867Z,71.50
2022-11-26T13:55:54.731Z,71.60
2022-11-26T13:58:27.782Z,71.50
2022-11-26T14:00:54.519Z,71.40
2022-11-26T14:03:47.815Z,71.40
2022-11-26T14:06:15.163Z,71.50
2022-11-26T14:08:44.993Z,71.30
2022-11-26T14:11:16.104Z,71.50
2022-11-26T14:14:06.226Z,71.50
2022-11-26T14:17:01.980Z,71.20
2022-11-26T14:19:40.940Z,71.30
2022-11-26T14:22:22.529Z,71.40
2022-11-26T14:24:52.185Z,71.40
2022-11-26T14:27:34.286Z,71.20
2022-11-26T14:30:07.015Z,71.20
2022-11-26T14:32:52.338Z,71.30
2022-11-26T14:35:30.687Z,71.50
2022-11-26T14:38:02.059Z,71.60
2022-11-26T14:40:31.293Z,71.60
2022-11-26T14:43:19.694Z,71.60
2022-11-26T14:46:03.029Z,71.50
2022-11-26T14:48:31.790Z,71.40
2022-11-26T14:51:00.496Z,71.10
2022-11-26T14:53:34.124Z,71.00
2022-11-26T14:56:01.466Z,70.90
2022-11-26T14:58:39.454Z,70.80
2022-11-26T15:01:18.738Z,70.60
2022-11-26T15:04:03.563Z,70.60
2022-11-26T15:06:34.971Z,70.50
2022-11-26T15:09:15.724Z,70.40
2022-11-26T15:11:53.611Z,70.40
2022-11-26T15:14:37.294Z,70.30
2022-11-26T15:17:06.198Z,70.10
2022-11-26T15:19:36.188Z,70.10
2022-11-26T15:22:08.386Z,70.10
2022-11-26T15:24:35.966Z,70.00
2022-11-26T15:27:02.555Z,69.90
2022-11-26T15:29:32.009Z,69.90
2022-11-26T15:31:58.785Z,69.90
2022-11-26T15:34:26.644Z,69.80
2022-11-26T15:36:53.376Z,69.90
2022-11-26T15:39:46.570Z,69.80
2022-11-26T15:42:29.839Z,69.80
2022-11-26T15:44:56.935Z,69.90
2022-11-26T15:47:26.484Z,69.80
2022-11-26T15:49:57.694Z,69.70
2022-11-26T15:52:30.615Z,69.70
2022-11-26T15:55:17.053Z,69.60
2022-11-26T15:57:44.337Z,69.60
2022-11-26T16:00:36.093Z,69.50
2022-11-26T16:03:04.783Z,69.50
2022-11-26T16:05:38.637Z,69.40
2022-11-26T16:08:32.883Z,69.50
2022-11-26T16:11:08.700Z,69.40
2022-11-26T16:13:35.993Z,69.50
2022-11-26T16:16:28.650Z,69.40
2022-11-26T16:19:00.294Z,69.50
2022-11-26T16:21:32.170Z,69.60
2022-11-26T16:24:03.228Z,69.60
2022-11-26T16:26:30.108Z,69.70
2022-11-26T16:28:56.712Z,69.60
2022-11-26T16:31:23.521Z,69.60
2022-11-26T16:33:50.493Z,69.60
2022-11-26T16:36:20.950Z,69.60
2022-11-26T16:38:48.151Z,69.70
2022-11-26T16:41:16.907Z,69.60
2022-11-26T16:43:43.715Z,69.70
2022-11-26T16:46:23.668Z,69.60
2022-11-26T16:48:51.348Z,69.80
2022-11-26T16:51:18.260Z,69.70
2022-11-26T16:53:44.906Z,69.70
2022-11-26T16:56:19.949Z,69.80
2022-11-26T16:58:46.860Z,70.00
2022-11-26T17:01:13.682Z,69.80
2022-11-26T17:03:40.372Z,69.80
2022-11-26T17:06:33.886Z,69.80
2022-11-26T17:09:01.548Z,69.90
2022-11-26T17:11:28.245Z,69.80
2022-11-26T17:13:54.883Z,69.90
2022-11-26T17:16:23.383Z,70.00
2022-11-26T17:18:50.504Z,70.00
2022-11-26T17:21:17.355Z,70.00
2022-11-26T17:23:43.979Z,70.00
2022-11-26T17:26:18.990Z,70.00
2022-11-26T17:28:45.947Z,70.20
2022-11-26T17:31:12.730Z,70.10
2022-11-26T17:33:39.561Z,70.00
2022-11-26T17:36:24.496Z,70.10
2022-11-26T17:38:51.567Z,70.20
2022-11-26T17:41:18.814Z,70.00
2022-11-26T17:43:45.526Z,70.10
2022-11-26T17:46:20.712Z,70.10
2022-11-26T17:48:48.667Z,70.20
2022-11-26T17:51:15.688Z,70.10
2022-11-26T17:53:43.236Z,70.20
2022-11-26T17:56:19.347Z,70.10
2022-11-26T17:58:46.812Z,70.20
2022-11-26T18:01:14.600Z,70.10
2022-11-26T18:03:42.683Z,70.10
2022-11-26T18:06:38.493Z,70.10
2022-11-26T18:09:05.148Z,70.20
2022-11-26T18:11:47.895Z,70.10
2022-11-26T18:14:14.583Z,70.20
2022-11-26T18:16:41.318Z,70.10
2022-11-26T18:19:09.730Z,70.10
2022-11-26T18:21:36.899Z,70.10
2022-11-26T18:24:04.878Z,70.10
2022-11-26T18:26:32.212Z,70.10
2022-11-26T18:29:01.769Z,70.10
2022-11-26T18:31:29.667Z,70.10
2022-11-26T18:33:56.967Z,70.20
2022-11-26T18:36:23.958Z,70.20
2022-11-26T18:38:50.939Z,70.20
2022-11-26T18:41:17.824Z,70.20
2022-11-26T18:43:44.842Z,70.20
2022-11-26T18:46:17.262Z,70.20
2022-11-26T18:48:46.134Z,70.30
2022-11-26T18:51:13.469Z,70.20
2022-11-26T18:53:40.682Z,70.10
2022-11-26T18:56:13.753Z,70.20
2022-11-26T18:58:40.694Z,70.30
2022-11-26T19:01:18.710Z,70.20
2022-11-26T19:03:45.359Z,70.20
2022-11-26T19:06:18.534Z,70.10
2022-11-26T19:08:46.423Z,70.20
2022-11-26T19:11:20.120Z,70.10
2022-11-26T19:13:48.047Z,70.20
2022-11-26T19:16:17.101Z,70.00
2022-11-26T19:18:44.574Z,70.10
2022-11-26T19:21:22.155Z,70.10
2022-11-26T19:23:49.979Z,70.10
2022-11-26T19:26:17.687Z,70.00
2022-11-26T19:28:44.901Z,70.10
2022-11-26T19:31:13.680Z,70.00
2022-11-26T19:33:40.680Z,70.00
2022-11-26T19:36:10.292Z,70.00
2022-11-26T19:38:37.761Z,70.00
2022-11-26T19:41:05.872Z,70.00
2022-11-26T19:43:38.362Z,69.90
2022-11-26T19:46:07.704Z,70.00
2022-11-26T19:48:37.386Z,69.90
2022-11-26T19:51:05.876Z,69.90
2022-11-26T19:53:33.024Z,69.90
2022-11-26T19:56:05.858Z,69.90
2022-11-26T19:58:34.214Z,70.00
2022-11-26T20:01:01.676Z,69.90
2022-11-26T20:03:30.748Z,70.00
2022-11-26T20:06:12.476Z,70.00
2022-11-26T20:08:39.203Z,70.20
2022-11-26T20:11:07.750Z,70.10
2022-11-26T20:13:36.299Z,70.20
2022-11-26T20:16:07.655Z,70.20
2022-11-26T20:18:36.272Z,70.30
2022-11-26T20:21:07.199Z,70.30
2022-11-26T20:23:33.889Z,70.30
2022-11-26T20:26:00.560Z,70.30
2022-11-26T20:28:27.378Z,70.30
2022-11-26T20:30:54.071Z,70.30
2022-11-26T20:33:22.608Z,70.30
2022-11-26T20:35:50.157Z,70.30
2022-11-26T20:38:17.216Z,70.20
2022-11-26T20:40:44.277Z,70.30
2022-11-26T20:43:11.368Z,70.20
2022-11-26T20:45:38.280Z,70.20
2022-11-26T20:48:08.747Z,70.20
2022-11-26T20:50:35.338Z,70.20
2022-11-26T20:53:01.910Z,70.20
2022-11-26T20:55:28.551Z,70.20
2022-11-26T20:57:55.260Z,70.20
2022-11-26T21:00:27.228Z,70.20
2022-11-26T21:02:54.312Z,70.20
2022-11-26T21:05:23.033Z,70.20
2022-11-26T21:07:50.875Z,70.10
2022-11-26T21:10:18.110Z,70.10
2022-11-26T21:12:44.714Z,70.10
2022-11-26T21:15:11.605Z,70.10
2022-11-26T21:17:38.401Z,70.10
2022-11-26T21:20:06.335Z,70.00
2022-11-26T21:22:33.143Z,70.00
2022-11-26T21:24:59.722Z,70.00
2022-11-26T21:27:26.333Z,70.00
2022-11-26T21:29:53.105Z,70.00
2022-11-26T21:32:19.774Z,70.00
2022-11-26T21:34:46.522Z,69.90
2022-11-26T21:37:13.263Z,69.90
2022-11-26T21:39:40.247Z,69.90
2022-11-26T21:42:06.971Z,69.90
2022-11-26T21:44:33.783Z,69.90
2022-11-26T21:47:02.667Z,69.90
2022-11-26T21:49:30.897Z,69.90
2022-11-26T21:51:58.446Z,69.90
2022-11-26T21:54:26.266Z,69.80
2022-11-26T21:56:53.083Z,69.90
2022-11-26T21:59:19.667Z,69.80
2022-11-26T22:01:47.062Z,69.90
2022-11-26T22:04:17.295Z,69.90
2022-11-26T22:06:45.630Z,69.90
2022-11-26T22:09:13.742Z,69.90
2022-11-26T22:11:42.667Z,69.90
2022-11-26T22:14:12.758Z,69.90
2022-11-26T22:16:39.500Z,69.90
2022-11-26T22:19:06.242Z,69.80
2022-11-26T22:21:39.330Z,69.80
2022-11-26T22:24:09.700Z,69.80
2022-11-26T22:26:37.258Z,69.80
2022-11-26T22:29:04.532Z,69.80
2022-11-26T22:31:34.121Z,69.80
2022-11-26T22:34:04.582Z,69.80
2022-11-26T22:36:31.853Z,69.80
2022-11-26T22:38:59.335Z,69.80
2022-11-26T22:41:26.304Z,69.80
2022-11-26T22:43:53.085Z,69.80
2022-11-26T22:46:22.927Z,69.80
2022-11-26T22:48:51.372Z,69.80
2022-11-26T22:51:18.626Z,69.80
2022-11-26T22:53:52.956Z,69.80
2022-11-26T22:56:19.786Z,69.90
2022-11-26T22:58:46.935Z,69.80
2022-11-26T23:01:20.612Z,69.80
2022-11-26T23:03:48.337Z,69.90
2022-11-26T23:06:16.567Z,69.80
2022-11-26T23:08:44.926Z,69.80
2022-11-26T23:11:20.546Z,69.80
2022-11-26T23:13:48.599Z,69.80
2022-11-26T23:16:16.760Z,69.80
2022-11-26T23:18:43.619Z,69.70
2022-11-26T23:21:16.622Z,69.70
2022-11-26T23:23:43.447Z,69.70
2022-11-26T23:26:14.290Z,69.70
2022-11-26T23:28:41.051Z,69.70
2022-11-26T23:31:19.592Z,69.60
2022-11-26T23:33:47.302Z,69.70
2022-11-26T23:36:14.561Z,69.60
2022-11-26T23:38:41.394Z,69.60
2022-11-26T23:41:08.690Z,69.60
2022-11-26T23:43:36.926Z,69.50
2022-11-26T23:46:23.972Z,69.60
2022-11-26T23:48:51.810Z,69.70
2022-11-26T23:51:24.719Z,69.50
2022-11-26T23:53:52.449Z,69.60
2022-11-26T23:56:21.667Z,69.50
2022-11-26T23:58:50.121Z,69.60
